createdAt,value
2018-07-30T00:01:54.140Z,8.10
2018-07-30T00:03:58.440Z,9.20
2018-07-30T00:06:02.722Z,7.83
2018-07-30T00:08:07.012Z,8.37
2018-07-30T00:10:10.996Z,7.30
2018-07-30T00:12:15.270Z,7.40
2018-07-30T00:14:19.449Z,6.93
2018-07-30T00:16:24.001Z,7.20
2018-07-30T00:18:28.032Z,7.63
2018-07-30T00:20:32.116Z,6.73
2018-07-30T00:22:36.392Z,6.20
2018-07-30T00:24:40.665Z,7.00
2018-07-30T00:26:44.607Z,6.03
2018-07-30T00:28:48.772Z,6.43
2018-07-30T00:30:53.098Z,5.30
2018-07-30T00:32:57.074Z,5.97
2018-07-30T00:35:01.413Z,6.63
2018-07-30T00:37:05.920Z,5.63
2018-07-30T00:39:11.488Z,6.67
2018-07-30T00:41:15.456Z,6.23
2018-07-30T00:43:19.416Z,5.63
2018-07-30T00:45:23.705Z,5.30
2018-07-30T00:47:27.644Z,5.77
2018-07-30T00:49:31.679Z,6.20
2018-07-30T00:51:36.192Z,5.90
2018-07-30T00:53:40.503Z,6.30
2018-07-30T00:55:44.432Z,5.57
2018-07-30T00:57:49.024Z,5.80
2018-07-30T00:59:52.981Z,11.90
2018-07-30T01:01:57.004Z,10.70
2018-07-30T01:04:00.952Z,12.00
2018-07-30T01:06:04.966Z,7.47
2018-07-30T01:08:09.577Z,7.00
2018-07-30T01:10:13.892Z,6.07
2018-07-30T01:12:17.987Z,5.90
2018-07-30T01:14:22.159Z,5.40
2018-07-30T01:16:26.280Z,6.77
2018-07-30T01:18:30.329Z,6.30
2018-07-30T01:20:34.233Z,5.73
2018-07-30T01:22:38.561Z,5.57
2018-07-30T01:24:43.597Z,5.33
2018-07-30T01:26:47.527Z,5.57
2018-07-30T01:28:52.159Z,5.67
2018-07-30T01:30:56.268Z,6.07
2018-07-30T01:33:00.384Z,5.73
2018-07-30T01:35:04.860Z,6.00
2018-07-30T01:37:08.818Z,5.50
2018-07-30T01:39:12.866Z,5.13
2018-07-30T01:41:17.552Z,5.90
2018-07-30T01:43:21.815Z,6.20
2018-07-30T01:45:25.768Z,5.70
2018-07-30T01:47:29.932Z,5.90
2018-07-30T01:49:33.868Z,5.50
2018-07-30T01:51:38.236Z,6.27
2018-07-30T01:53:42.460Z,6.47
2018-07-30T01:55:46.756Z,6.03
2018-07-30T01:57:50.696Z,13.57
2018-07-30T01:59:55.097Z,14.30
2018-07-30T02:01:59.400Z,11.10
2018-07-30T02:04:03.343Z,11.27
2018-07-30T02:06:07.291Z,7.80
2018-07-30T02:08:11.304Z,7.83
2018-07-30T02:10:15.226Z,6.80
2018-07-30T02:12:19.864Z,7.30
2018-07-30T02:14:24.137Z,7.67
2018-07-30T02:16:28.413Z,7.00
2018-07-30T02:18:32.892Z,6.50
2018-07-30T02:20:36.816Z,6.57
2018-07-30T02:22:40.748Z,7.00
2018-07-30T02:24:44.699Z,6.87
2018-07-30T02:26:48.415Z,6.10
2018-07-30T02:28:52.388Z,6.60
2018-07-30T02:30:57.240Z,6.50
2018-07-30T02:33:01.206Z,6.00
2018-07-30T02:35:06.985Z,6.20
2018-07-30T02:37:11.591Z,5.97
2018-07-30T02:39:16.064Z,6.77
2018-07-30T02:41:20.436Z,6.10
2018-07-30T02:43:24.556Z,6.50
2018-07-30T02:45:28.480Z,6.00
2018-07-30T02:47:32.440Z,6.00
2018-07-30T02:49:36.748Z,6.00
2018-07-30T02:51:40.715Z,5.53
2018-07-30T02:53:45.175Z,8.80
2018-07-30T02:55:49.124Z,5.60
2018-07-30T02:57:53.204Z,6.37
2018-07-30T02:59:57.425Z,7.20
2018-07-30T03:02:01.369Z,6.73
2018-07-30T03:04:05.487Z,7.10
2018-07-30T03:06:09.436Z,6.37
2018-07-30T03:08:13.407Z,6.73
2018-07-30T03:10:17.360Z,5.83
2018-07-30T03:12:21.331Z,6.00
2018-07-30T03:14:25.603Z,7.20
2018-07-30T03:16:29.588Z,6.57
2018-07-30T03:18:33.563Z,6.53
2018-07-30T03:20:37.496Z,6.67
2018-07-30T03:22:41.759Z,5.70
2018-07-30T03:24:46.036Z,6.83
2018-07-30T03:26:49.751Z,6.43
2018-07-30T03:28:53.658Z,6.20
2018-07-30T03:30:57.594Z,6.40
2018-07-30T03:33:01.645Z,6.40
2018-07-30T03:35:06.191Z,7.57
2018-07-30T03:37:10.460Z,8.47
2018-07-30T03:39:14.756Z,6.87
2018-07-30T03:41:19.736Z,7.20
2018-07-30T03:43:23.447Z,6.90
2018-07-30T03:45:27.608Z,7.60
2018-07-30T03:47:31.988Z,7.50
2018-07-30T03:49:36.249Z,6.80
2018-07-30T03:51:40.558Z,8.53
2018-07-30T03:53:44.507Z,7.20
2018-07-30T03:55:48.781Z,6.83
2018-07-30T03:57:52.565Z,6.43
2018-07-30T03:59:56.650Z,7.67
2018-07-30T04:02:00.736Z,6.53
2018-07-30T04:04:05.183Z,8.23
2018-07-30T04:06:09.163Z,6.40
2018-07-30T04:08:13.236Z,7.53
2018-07-30T04:10:17.736Z,9.33
2018-07-30T04:12:21.699Z,8.57
2018-07-30T04:14:25.646Z,6.43
2018-07-30T04:16:29.596Z,7.10
2018-07-30T04:18:33.523Z,7.80
2018-07-30T04:20:37.488Z,7.07
2018-07-30T04:22:41.201Z,6.20
2018-07-30T04:24:45.025Z,6.40
2018-07-30T04:26:49.313Z,6.93
2018-07-30T04:28:53.428Z,9.67
2018-07-30T04:30:57.725Z,11.40
2018-07-30T04:33:01.881Z,9.23
2018-07-30T04:35:06.133Z,7.60
2018-07-30T04:37:10.481Z,7.27
2018-07-30T04:39:15.327Z,6.53
2018-07-30T04:41:20.646Z,12.73
2018-07-30T04:43:25.636Z,9.37
2018-07-30T04:45:29.900Z,8.67
2018-07-30T04:47:33.828Z,7.43
2018-07-30T04:49:37.775Z,7.00
2018-07-30T04:51:41.765Z,8.80
2018-07-30T04:53:45.740Z,6.37
2018-07-30T04:55:50.347Z,10.90
2018-07-30T04:57:54.397Z,5.77
2018-07-30T04:59:58.367Z,5.20
2018-07-30T05:02:02.308Z,9.63
2018-07-30T05:04:06.265Z,8.90
2018-07-30T05:06:10.214Z,7.60
2018-07-30T05:08:14.186Z,6.07
2018-07-30T05:10:18.179Z,7.07
2018-07-30T05:12:22.240Z,6.60
2018-07-30T05:14:26.144Z,6.63
2018-07-30T05:16:30.081Z,6.00
2018-07-30T05:18:34.064Z,6.10
2018-07-30T05:20:38.611Z,9.60
2018-07-30T05:22:42.585Z,6.50
2018-07-30T05:24:46.588Z,7.93
2018-07-30T05:26:50.721Z,6.50
2018-07-30T05:28:54.705Z,6.50
2018-07-30T05:30:58.956Z,6.03
2018-07-30T05:33:02.985Z,5.70
2018-07-30T05:35:06.928Z,5.40
2018-07-30T05:37:10.937Z,6.57
2018-07-30T05:39:15.454Z,6.00
2018-07-30T05:41:19.920Z,6.53
2018-07-30T05:43:24.217Z,6.30
2018-07-30T05:45:28.150Z,5.77
2018-07-30T05:47:32.148Z,6.13
2018-07-30T05:49:36.633Z,5.13
2018-07-30T05:51:40.560Z,6.10
2018-07-30T05:53:44.600Z,6.33
2018-07-30T05:55:49.678Z,5.37
2018-07-30T05:57:53.996Z,5.73
2018-07-30T05:59:58.285Z,5.50
2018-07-30T06:02:02.332Z,6.37
2018-07-30T06:04:06.605Z,5.70
2018-07-30T06:06:10.544Z,6.37
2018-07-30T06:08:14.504Z,5.97
2018-07-30T06:10:18.783Z,5.80
2018-07-30T06:12:22.735Z,5.97
2018-07-30T06:14:26.746Z,5.63
2018-07-30T06:16:31.017Z,5.60
2018-07-30T06:18:34.940Z,5.80
2018-07-30T06:20:38.968Z,5.33
2018-07-30T06:22:43.191Z,5.43
2018-07-30T06:24:47.156Z,6.30
2018-07-30T06:26:51.112Z,5.10
2018-07-30T06:28:55.087Z,4.57
2018-07-30T06:30:59.047Z,6.37
2018-07-30T06:33:03.238Z,6.37
2018-07-30T06:35:07.912Z,5.77
2018-07-30T06:37:11.851Z,5.70
2018-07-30T06:39:16.052Z,6.43
2018-07-30T06:41:19.988Z,5.53
2018-07-30T06:43:23.980Z,5.63
2018-07-30T06:45:28.611Z,5.83
2018-07-30T06:47:32.925Z,5.60
2018-07-30T06:49:36.905Z,6.23
2018-07-30T06:51:40.813Z,6.27
2018-07-30T06:53:45.108Z,5.60
2018-07-30T06:55:49.053Z,6.50
2018-07-30T06:57:53.552Z,5.33
2018-07-30T06:59:57.612Z,5.30
2018-07-30T07:02:01.955Z,5.73
2018-07-30T07:04:06.400Z,6.40
2018-07-30T07:06:10.165Z,6.00
2018-07-30T07:08:13.976Z,6.17
2018-07-30T07:10:17.924Z,5.90
2018-07-30T07:12:22.028Z,6.93
2018-07-30T07:14:25.963Z,6.23
2018-07-30T07:16:29.915Z,5.27
2018-07-30T07:18:34.436Z,5.50
2018-07-30T07:20:38.420Z,5.00
2018-07-30T07:22:42.547Z,5.43
2018-07-30T07:24:46.557Z,5.03
2018-07-30T07:26:50.560Z,5.93
2018-07-30T07:28:54.980Z,4.60
2018-07-30T07:30:58.987Z,4.77
2018-07-30T07:33:02.885Z,5.63
2018-07-30T07:35:07.259Z,6.10
2018-07-30T07:37:11.257Z,5.70
2018-07-30T07:39:15.423Z,5.07
2018-07-30T07:41:19.264Z,5.07
2018-07-30T07:43:22.979Z,5.50
2018-07-30T07:45:27.137Z,4.33
2018-07-30T07:47:31.711Z,4.20
2018-07-30T07:49:36.064Z,4.53
2018-07-30T07:51:40.727Z,4.77
2018-07-30T07:53:44.912Z,5.00
2018-07-30T07:55:49.272Z,4.10
2018-07-30T07:57:53.536Z,4.10
2018-07-30T07:59:57.698Z,4.40
2018-07-30T08:02:01.648Z,3.20
2018-07-30T08:04:05.955Z,3.87
2018-07-30T08:06:10.275Z,3.87
2018-07-30T08:08:14.564Z,3.87
2018-07-30T08:10:18.836Z,4.10
2018-07-30T08:12:22.560Z,3.70
2018-07-30T08:14:26.140Z,3.30
2018-07-30T08:16:30.280Z,3.27
2018-07-30T08:18:34.212Z,3.77
2018-07-30T08:20:38.522Z,3.43
2018-07-30T08:22:42.918Z,3.40
2018-07-30T08:24:46.913Z,3.53
2018-07-30T08:26:50.847Z,3.10
2018-07-30T08:28:55.087Z,3.87
2018-07-30T08:30:59.300Z,3.60
2018-07-30T08:33:03.425Z,3.70
2018-07-30T08:35:07.812Z,3.23
2018-07-30T08:37:11.750Z,3.13
2018-07-30T08:39:15.456Z,3.40
2018-07-30T08:41:19.424Z,3.33
2018-07-30T08:43:23.268Z,3.60
2018-07-30T08:45:27.568Z,3.57
2018-07-30T08:47:31.811Z,3.70
2018-07-30T08:49:36.053Z,3.33
2018-07-30T08:51:40.080Z,3.80
2018-07-30T08:53:44.075Z,3.53
2018-07-30T08:55:48.278Z,3.50
2018-07-30T08:57:52.246Z,3.80
2018-07-30T08:59:56.183Z,3.73
2018-07-30T09:02:00.484Z,3.50
2018-07-30T09:04:04.437Z,3.30
2018-07-30T09:06:08.171Z,3.50
2018-07-30T09:08:12.033Z,3.20
2018-07-30T09:10:15.986Z,4.60
2018-07-30T09:12:19.939Z,3.77
2018-07-30T09:14:24.277Z,3.73
2018-07-30T09:16:28.552Z,4.20
2018-07-30T09:18:32.830Z,3.70
2018-07-30T09:20:37.684Z,3.60
2018-07-30T09:22:41.664Z,3.70
2018-07-30T09:24:45.648Z,3.60
2018-07-30T09:26:49.794Z,3.20
2018-07-30T09:28:53.964Z,3.60
2018-07-30T09:30:57.976Z,3.17
2018-07-30T09:33:02.093Z,3.60
2018-07-30T09:35:06.127Z,3.53
2018-07-30T09:37:10.462Z,3.20
2018-07-30T09:39:15.146Z,3.20
2018-07-30T09:41:19.256Z,3.70
2018-07-30T09:43:23.948Z,3.20
2018-07-30T09:45:27.920Z,3.50
2018-07-30T09:47:31.892Z,3.23
2018-07-30T09:49:36.171Z,3.07
2018-07-30T09:51:40.484Z,3.10
2018-07-30T09:53:44.435Z,3.17
2018-07-30T09:55:49.592Z,3.20
2018-07-30T09:57:53.551Z,3.03
2018-07-30T09:59:57.497Z,3.30
2018-07-30T10:02:01.465Z,2.70
2018-07-30T10:04:05.837Z,3.53
2018-07-30T10:06:10.145Z,3.10
2018-07-30T10:08:14.232Z,3.10
2018-07-30T10:10:18.571Z,3.50
2018-07-30T10:12:23.000Z,3.00
2018-07-30T10:14:27.028Z,3.27
2018-07-30T10:16:31.015Z,3.20
2018-07-30T10:18:35.165Z,3.07
2018-07-30T10:20:39.129Z,3.13
2018-07-30T10:22:43.171Z,3.10
2018-07-30T10:24:47.315Z,3.20
2018-07-30T10:26:51.318Z,2.80
2018-07-30T10:28:55.272Z,3.13
2018-07-30T10:30:59.345Z,3.70
2018-07-30T10:33:03.259Z,3.23
2018-07-30T10:35:07.229Z,3.60
2018-07-30T10:37:11.212Z,3.77
2018-07-30T10:39:15.756Z,3.00
2018-07-30T10:41:20.743Z,4.13
2018-07-30T10:43:24.672Z,3.40
2018-07-30T10:45:28.647Z,2.97
2018-07-30T10:47:32.597Z,2.60
2018-07-30T10:49:37.481Z,3.37
2018-07-30T10:51:41.477Z,2.40
2018-07-30T10:53:45.618Z,3.37
2018-07-30T10:55:50.061Z,2.80
2018-07-30T10:57:54.048Z,3.10
2018-07-30T10:59:58.078Z,3.03
2018-07-30T11:02:02.048Z,3.00
2018-07-30T11:04:06.523Z,3.40
2018-07-30T11:06:10.496Z,3.17
2018-07-30T11:08:14.516Z,4.10
2018-07-30T11:10:18.528Z,3.33
2018-07-30T11:12:22.482Z,3.67
2018-07-30T11:14:26.660Z,3.80
2018-07-30T11:16:30.628Z,3.90
2018-07-30T11:18:34.560Z,4.63
2018-07-30T11:20:38.540Z,4.33
2018-07-30T11:22:42.916Z,3.47
2018-07-30T11:24:46.864Z,3.30
2018-07-30T11:26:51.212Z,3.40
2018-07-30T11:28:55.209Z,2.73
2018-07-30T11:30:59.141Z,3.00
2018-07-30T11:33:03.486Z,3.27
2018-07-30T11:35:07.985Z,3.80
2018-07-30T11:37:11.928Z,2.90
2018-07-30T11:39:16.105Z,3.03
2018-07-30T11:41:20.311Z,3.17
2018-07-30T11:43:24.432Z,3.53
2018-07-30T11:45:29.239Z,3.57
2018-07-30T11:47:33.231Z,2.90
2018-07-30T11:49:37.972Z,3.23
2018-07-30T11:51:42.077Z,3.40
2018-07-30T11:53:47.001Z,3.45
2018-07-30T11:55:51.168Z,4.00
2018-07-30T11:57:55.184Z,3.30
2018-07-30T11:59:59.108Z,4.13
2018-07-30T12:02:03.204Z,3.40
2018-07-30T12:04:07.333Z,3.50
2018-07-30T12:06:11.504Z,3.10
2018-07-30T12:08:15.580Z,3.50
2018-07-30T12:10:20.944Z,3.30
2018-07-30T12:12:25.025Z,3.17
2018-07-30T12:14:29.752Z,2.90
2018-07-30T12:16:33.698Z,3.40
2018-07-30T12:18:38.210Z,3.65
2018-07-30T12:20:42.717Z,3.17
2018-07-30T12:22:47.912Z,2.72
2018-07-30T12:24:52.410Z,3.27
2018-07-30T12:26:56.622Z,2.80
2018-07-30T12:29:00.937Z,2.60
2018-07-30T12:31:05.625Z,2.30
2018-07-30T12:33:09.708Z,2.40
2018-07-30T12:35:13.726Z,2.22
2018-07-30T12:37:18.042Z,2.90
2018-07-30T12:39:22.308Z,2.30
2018-07-30T12:41:27.185Z,2.33
2018-07-30T12:43:31.140Z,1.90
2018-07-30T12:45:40.675Z,2.22
2018-07-30T12:47:44.662Z,2.60
2018-07-30T12:49:49.051Z,2.45
2018-07-30T12:51:53.555Z,2.40
2018-07-30T12:53:58.452Z,2.70
2018-07-30T12:56:02.627Z,2.92
2018-07-30T12:58:07.137Z,3.05
2018-07-30T13:00:11.080Z,2.70
2018-07-30T13:02:16.411Z,2.70
2018-07-30T13:04:20.979Z,2.55
2018-07-30T13:06:25.802Z,3.15
2018-07-30T13:08:30.333Z,2.45
2018-07-30T13:10:35.256Z,2.77
2018-07-30T13:12:39.585Z,3.00
2018-07-30T13:14:44.096Z,2.72
2018-07-30T13:16:48.626Z,4.95
2018-07-30T13:18:53.440Z,3.17
2018-07-30T13:20:57.985Z,2.75
2018-07-30T13:23:03.184Z,3.50
2018-07-30T13:25:08.120Z,2.25
2018-07-30T13:27:13.937Z,2.95
2018-07-30T13:29:18.481Z,2.58
2018-07-30T13:31:22.908Z,2.35
2018-07-30T13:33:26.846Z,2.90
2018-07-30T13:35:30.798Z,2.65
2018-07-30T13:37:35.232Z,2.70
2018-07-30T13:39:39.509Z,3.60
2018-07-30T13:41:43.776Z,2.80
2018-07-30T13:43:48.072Z,2.83
2018-07-30T13:45:52.412Z,2.47
2018-07-30T13:47:56.418Z,2.47
2018-07-30T13:50:00.600Z,3.20
2018-07-30T13:52:06.723Z,3.52
2018-07-30T13:54:11.317Z,2.87
2018-07-30T13:56:16.322Z,3.10
2018-07-30T13:58:20.998Z,2.70
2018-07-30T14:00:24.932Z,2.92
2018-07-30T14:02:28.892Z,3.42
2018-07-30T14:04:32.836Z,3.10
2018-07-30T14:06:36.810Z,2.90
2018-07-30T14:08:41.432Z,3.07
2018-07-30T14:10:45.756Z,2.77
2018-07-30T14:12:50.850Z,3.10
2018-07-30T14:14:55.452Z,3.10
2018-07-30T14:16:59.455Z,2.93
2018-07-30T14:19:04.453Z,3.72
2018-07-30T14:21:09.144Z,3.25
2018-07-30T14:23:13.676Z,5.03
2018-07-30T14:25:18.528Z,3.90
2018-07-30T14:27:22.959Z,3.03
2018-07-30T14:29:27.444Z,3.17
2018-07-30T14:31:31.460Z,2.67
2018-07-30T14:33:36.366Z,2.95
2018-07-30T14:35:41.083Z,3.08
2018-07-30T14:37:45.572Z,3.05
2018-07-30T14:39:50.497Z,4.37
2018-07-30T14:41:55.024Z,3.50
2018-07-30T14:44:00.308Z,3.08
2018-07-30T14:46:05.268Z,3.10
2018-07-30T14:48:10.269Z,4.55
2018-07-30T14:50:15.068Z,3.42
2018-07-30T14:52:19.639Z,3.42
2018-07-30T14:54:24.945Z,3.40
2018-07-30T14:56:29.381Z,4.37
2018-07-30T14:58:33.934Z,4.22
2018-07-30T15:00:38.457Z,3.30
2018-07-30T15:02:42.665Z,4.17
2018-07-30T15:04:47.244Z,4.55
2018-07-30T15:06:51.935Z,4.30
2018-07-30T15:08:56.130Z,3.40
2018-07-30T15:11:00.368Z,3.40
2018-07-30T15:13:04.607Z,3.83
2018-07-30T15:15:09.180Z,3.55
2018-07-30T15:17:13.765Z,3.40
2018-07-30T15:19:19.260Z,4.37
2018-07-30T15:21:24.001Z,2.80
2018-07-30T15:23:28.220Z,3.08
2018-07-30T15:25:32.436Z,2.70
2018-07-30T15:27:36.651Z,3.58
2018-07-30T15:29:41.230Z,2.83
2018-07-30T15:31:45.781Z,3.62
2018-07-30T15:33:50.327Z,2.92
2018-07-30T15:35:56.840Z,3.80
2018-07-30T15:38:01.061Z,3.35
2018-07-30T15:40:05.629Z,4.42
2018-07-30T15:42:09.840Z,2.98
2018-07-30T15:44:13.839Z,3.37
2018-07-30T15:46:18.318Z,2.85
2018-07-30T15:48:22.566Z,2.87
2018-07-30T15:50:27.003Z,2.90
2018-07-30T15:52:31.248Z,3.17
2018-07-30T15:54:35.792Z,2.65
2018-07-30T15:56:40.004Z,3.30
2018-07-30T15:58:45.128Z,4.67
2018-07-30T16:00:50.238Z,2.90
2018-07-30T16:02:54.476Z,3.17
2018-07-30T16:04:59.240Z,3.62
2018-07-30T16:07:04.046Z,2.77
2018-07-30T16:09:08.989Z,4.37
2018-07-30T16:11:14.136Z,3.30
2018-07-30T16:13:18.896Z,3.33
2018-07-30T16:15:24.040Z,3.60
2018-07-30T16:17:29.136Z,3.40
2018-07-30T16:19:33.978Z,2.60
2018-07-30T16:21:39.144Z,2.95
2018-07-30T16:23:43.913Z,3.40
2018-07-30T16:25:49.009Z,4.70
2018-07-30T16:27:53.432Z,4.00
2018-07-30T16:29:58.011Z,2.85
2018-07-30T16:32:03.091Z,5.67
2018-07-30T16:34:08.225Z,3.40
2018-07-30T16:36:13.004Z,2.83
2018-07-30T16:38:17.379Z,3.37
2018-07-30T16:40:21.952Z,3.47
2018-07-30T16:42:26.164Z,3.98
2018-07-30T16:44:30.708Z,3.50
2018-07-30T16:46:34.719Z,3.52
2018-07-30T16:48:39.183Z,3.22
2018-07-30T16:50:43.581Z,3.85
2018-07-30T16:52:47.926Z,2.85
2018-07-30T16:54:52.356Z,5.87
2018-07-30T16:56:56.625Z,3.00
2018-07-30T16:59:00.960Z,7.40
2018-07-30T17:01:05.516Z,3.65
2018-07-30T17:03:10.052Z,2.70
2018-07-30T17:05:17.594Z,3.40
2018-07-30T17:07:22.296Z,5.08
2018-07-30T17:09:26.520Z,3.37
2018-07-30T17:11:30.472Z,3.87
2018-07-30T17:13:34.679Z,5.17
2018-07-30T17:15:39.315Z,3.55
2018-07-30T17:17:43.885Z,3.77
2018-07-30T17:19:49.196Z,5.72
2018-07-30T17:21:53.632Z,4.17
2018-07-30T17:23:57.850Z,3.13
2018-07-30T17:26:02.625Z,3.42
2018-07-30T17:28:07.744Z,4.17
2018-07-30T17:30:13.609Z,10.10
2018-07-30T17:32:18.591Z,3.47
2018-07-30T17:34:23.714Z,3.60
2018-07-30T17:36:28.339Z,3.52
2018-07-30T17:38:33.274Z,3.90
2018-07-30T17:40:37.940Z,4.30
2018-07-30T17:42:42.375Z,3.43
2018-07-30T17:44:47.720Z,3.98
2018-07-30T17:46:52.520Z,3.72
2018-07-30T17:48:57.665Z,6.20
2018-07-30T17:51:02.880Z,4.72
2018-07-30T17:53:07.121Z,7.07
2018-07-30T17:55:11.524Z,6.00
2018-07-30T17:57:15.775Z,5.23
2018-07-30T17:59:20.194Z,4.90
2018-07-30T18:01:24.371Z,11.20
2018-07-30T18:03:28.932Z,5.40
2018-07-30T18:05:33.504Z,6.70
2018-07-30T18:07:38.290Z,6.27
2018-07-30T18:09:42.221Z,6.80
2018-07-30T18:11:46.195Z,7.87
2018-07-30T18:13:50.764Z,6.47
2018-07-30T18:15:55.016Z,8.67
2018-07-30T18:17:59.240Z,5.77
2018-07-30T18:20:03.503Z,5.60
2018-07-30T18:22:08.104Z,6.87
2018-07-30T18:24:12.313Z,7.97
2018-07-30T18:26:16.307Z,7.93
2018-07-30T18:28:21.096Z,9.20
2018-07-30T18:30:25.542Z,6.07
2018-07-30T18:32:30.089Z,6.40
2018-07-30T18:34:34.681Z,6.47
2018-07-30T18:36:38.905Z,10.50
2018-07-30T18:38:43.464Z,6.50
2018-07-30T18:40:48.091Z,7.00
2018-07-30T18:42:52.809Z,6.00
2018-07-30T18:44:57.172Z,9.30
2018-07-30T18:47:02.324Z,9.50
2018-07-30T18:49:06.528Z,8.70
2018-07-30T18:51:10.747Z,8.70
2018-07-30T18:53:14.955Z,7.03
2018-07-30T18:55:19.528Z,5.50
2018-07-30T18:57:24.284Z,6.83
2018-07-30T18:59:28.562Z,6.67
2018-07-30T19:01:33.112Z,6.00
2018-07-30T19:03:38.056Z,6.30
2018-07-30T19:05:42.600Z,5.50
2018-07-30T19:07:46.600Z,4.67
2018-07-30T19:09:50.989Z,6.10
2018-07-30T19:11:55.539Z,6.30
2018-07-30T19:13:59.560Z,9.53
2018-07-30T19:16:04.125Z,9.47
2018-07-30T19:18:08.416Z,13.10
2018-07-30T19:20:12.993Z,7.17
2018-07-30T19:22:18.124Z,5.40
2018-07-30T19:24:22.502Z,8.73
2018-07-30T19:26:26.940Z,6.93
2018-07-30T19:28:31.200Z,5.93
2018-07-30T19:30:35.419Z,6.60
2018-07-30T19:32:40.055Z,7.60
2018-07-30T19:34:44.539Z,9.73
2018-07-30T19:36:49.247Z,6.83
2018-07-30T19:38:53.876Z,4.50
2018-07-30T19:40:58.048Z,5.53
2018-07-30T19:43:02.224Z,7.60
2018-07-30T19:45:07.032Z,5.43
2018-07-30T19:47:11.440Z,11.00
2018-07-30T19:49:15.668Z,8.50
2018-07-30T19:51:20.556Z,11.40
2018-07-30T19:53:24.807Z,8.67
2018-07-30T19:55:29.042Z,12.33
2018-07-30T19:57:33.548Z,6.80
2018-07-30T19:59:38.017Z,7.90
2018-07-30T20:01:42.279Z,9.30
2018-07-30T20:05:57.482Z,7.80
2018-07-30T20:08:01.724Z,7.40
2018-07-30T20:10:05.979Z,5.63
2018-07-30T20:12:10.333Z,5.50
2018-07-30T20:14:14.744Z,6.57
2018-07-30T20:16:19.050Z,6.30
2018-07-30T20:18:23.450Z,5.80
2018-07-30T20:20:28.000Z,5.63
2018-07-30T20:22:32.569Z,5.73
2018-07-30T20:24:36.798Z,5.37
2018-07-30T20:26:40.999Z,5.60
2018-07-30T20:28:44.883Z,5.47
2018-07-30T20:30:49.060Z,5.27
2018-07-30T20:32:54.140Z,5.07
2018-07-30T20:34:58.711Z,5.43
2018-07-30T20:37:03.617Z,12.20
2018-07-30T20:39:08.784Z,4.90
2018-07-30T20:41:13.086Z,5.17
2018-07-30T20:43:17.612Z,5.20
2018-07-30T20:45:21.840Z,5.70
2018-07-30T20:47:26.056Z,4.97
2018-07-30T20:49:30.619Z,5.07
2018-07-30T20:51:34.860Z,5.13
2018-07-30T20:53:39.122Z,5.10
2018-07-30T20:55:43.817Z,5.13
2018-07-30T20:57:48.568Z,5.20
2018-07-30T20:59:52.540Z,5.40
2018-07-30T21:01:56.748Z,5.60
2018-07-30T21:04:01.296Z,4.80
2018-07-30T21:06:05.283Z,6.00
2018-07-30T21:08:09.789Z,5.40
2018-07-30T21:10:13.884Z,6.07
2018-07-30T21:12:18.177Z,6.60
2018-07-30T21:14:22.777Z,4.73
2018-07-30T21:16:27.748Z,5.37
2018-07-30T21:18:31.962Z,5.63
2018-07-30T21:20:36.499Z,5.17
2018-07-30T21:22:40.770Z,5.50
2018-07-30T21:24:44.972Z,4.80
2018-07-30T21:26:49.208Z,5.03
2018-07-30T21:28:54.144Z,5.30
2018-07-30T21:30:58.356Z,5.70
2018-07-30T21:33:02.937Z,5.00
2018-07-30T21:35:07.156Z,5.20
2018-07-30T21:37:11.535Z,4.90
2018-07-30T21:39:16.102Z,5.60
2018-07-30T21:41:21.154Z,5.03
2018-07-30T21:43:25.144Z,5.60
2018-07-30T21:45:29.097Z,5.00
2018-07-30T21:47:33.028Z,4.80
2018-07-30T21:49:37.720Z,5.20
2018-07-30T21:51:41.952Z,5.43
2018-07-30T21:53:46.503Z,7.23
2018-07-30T21:55:51.133Z,7.10
2018-07-30T21:57:55.444Z,5.67
2018-07-30T22:00:00.048Z,6.23
2018-07-30T22:02:04.475Z,5.83
2018-07-30T22:04:08.432Z,5.93
2018-07-30T22:06:13.020Z,5.80
2018-07-30T22:08:17.238Z,5.57
2018-07-30T22:10:24.265Z,4.83
2018-07-30T22:12:28.574Z,5.80
2018-07-30T22:14:32.792Z,5.93
2018-07-30T22:16:37.707Z,5.50
2018-07-30T22:18:42.100Z,15.10
2018-07-30T22:20:46.334Z,6.90
2018-07-30T22:22:50.515Z,8.67
2018-07-30T22:24:54.944Z,6.50
2018-07-30T22:26:59.893Z,5.40
2018-07-30T22:29:04.679Z,5.93
2018-07-30T22:31:09.112Z,6.00
2018-07-30T22:33:14.001Z,5.60
2018-07-30T22:35:18.764Z,6.03
2018-07-30T22:37:22.996Z,7.97
2018-07-30T22:39:26.972Z,5.87
2018-07-30T22:41:31.064Z,5.20
2018-07-30T22:43:35.668Z,6.13
2018-07-30T22:45:40.039Z,6.30
2018-07-30T22:47:44.569Z,5.90
2018-07-30T22:49:48.808Z,5.53
2018-07-30T22:51:53.356Z,5.53
2018-07-30T22:53:57.551Z,5.77
2018-07-30T22:56:02.172Z,8.57
2018-07-30T22:58:06.135Z,10.43
2018-07-30T23:00:10.254Z,6.13
2018-07-30T23:02:14.456Z,6.30
2018-07-30T23:04:18.431Z,6.30
2018-07-30T23:06:22.908Z,5.90
2018-07-30T23:08:27.120Z,6.37
2018-07-30T23:10:31.939Z,5.60
2018-07-30T23:12:36.622Z,6.40
2018-07-30T23:14:40.844Z,7.07
2018-07-30T23:16:44.815Z,7.30
2018-07-30T23:18:49.435Z,7.73
2018-07-30T23:20:53.939Z,7.40
2018-07-30T23:22:58.491Z,6.47
2018-07-30T23:25:02.889Z,10.50
2018-07-30T23:27:07.506Z,6.97
2018-07-30T23:29:12.122Z,9.87
2018-07-30T23:31:16.491Z,8.80
2018-07-30T23:33:20.847Z,11.83
2018-07-30T23:35:25.018Z,17.17
2018-07-30T23:37:29.584Z,11.17
2018-07-30T23:39:34.211Z,9.60
2018-07-30T23:41:38.871Z,8.10
2018-07-30T23:43:43.472Z,7.70
2018-07-30T23:45:48.040Z,8.10
2018-07-30T23:47:52.487Z,7.47
2018-07-30T23:49:56.787Z,6.83
2018-07-30T23:52:00.817Z,6.90
2018-07-30T23:54:04.912Z,7.03
2018-07-30T23:56:09.353Z,6.60
2018-07-30T23:58:13.991Z,6.30
